createdAt,value
2019-01-09T00:02:07.738Z,2.60
2019-01-09T00:04:37.415Z,2.60
2019-01-09T00:07:09.877Z,2.60
2019-01-09T00:09:39.881Z,2.60
2019-01-09T00:12:09.857Z,2.60
2019-01-09T00:14:39.841Z,2.60
2019-01-09T00:17:09.740Z,2.60
2019-01-09T00:19:39.489Z,2.60
2019-01-09T00:22:09.156Z,2.70
2019-01-09T00:24:39.032Z,2.70
2019-01-09T00:27:08.796Z,2.70
2019-01-09T00:29:39.025Z,2.70
2019-01-09T00:32:08.775Z,2.60
2019-01-09T00:34:38.446Z,2.60
2019-01-09T00:37:08.101Z,2.50
2019-01-09T00:39:37.966Z,2.50
2019-01-09T00:42:07.848Z,2.50
2019-01-09T00:44:37.898Z,2.50
2019-01-09T00:47:07.750Z,2.50
2019-01-09T00:49:37.781Z,2.50
2019-01-09T00:52:07.797Z,2.50
2019-01-09T00:54:38.044Z,2.50
2019-01-09T00:57:07.844Z,2.50
2019-01-09T00:59:38.060Z,2.50
2019-01-09T01:02:20.357Z,2.50
2019-01-09T01:04:55.903Z,2.50
2019-01-09T01:07:45.732Z,2.50
2019-01-09T01:10:24.942Z,2.50
2019-01-09T01:13:26.348Z,2.50
2019-01-09T01:16:18.463Z,2.50
2019-01-09T01:19:25.522Z,2.50
2019-01-09T01:21:58.252Z,2.50
2019-01-09T01:24:32.270Z,2.50
2019-01-09T01:27:05.180Z,2.50
2019-01-09T01:29:55.530Z,2.40
2019-01-09T01:32:33.935Z,2.40
2019-01-09T01:35:19.146Z,2.40
2019-01-09T01:38:20.759Z,2.40
2019-01-09T01:41:14.625Z,2.40
2019-01-09T01:43:55.677Z,2.40
2019-01-09T01:46:58.608Z,2.40
2019-01-09T01:49:55.733Z,2.40
2019-01-09T01:52:47.862Z,2.40
2019-01-09T01:55:20.955Z,2.40
2019-01-09T01:58:02.359Z,2.40
2019-01-09T02:00:41.029Z,2.40
2019-01-09T02:03:35.334Z,2.30
2019-01-09T02:06:25.812Z,2.30
2019-01-09T02:09:04.593Z,2.30
2019-01-09T02:11:55.749Z,2.30
2019-01-09T02:14:40.517Z,2.30
2019-01-09T02:17:31.827Z,2.30
2019-01-09T02:20:07.670Z,2.30
2019-01-09T02:22:52.630Z,2.30
2019-01-09T02:25:31.272Z,2.30
2019-01-09T02:28:37.658Z,2.20
2019-01-09T02:31:13.450Z,2.20
2019-01-09T02:33:43.290Z,2.20
2019-01-09T02:36:13.818Z,2.20
2019-01-09T02:38:43.746Z,2.20
2019-01-09T02:41:13.402Z,2.20
2019-01-09T02:43:43.185Z,2.20
2019-01-09T02:46:13.014Z,2.20
2019-01-09T02:48:42.653Z,2.20
2019-01-09T02:51:12.302Z,2.20
2019-01-09T02:53:42.186Z,2.20
2019-01-09T02:56:12.111Z,2.20
2019-01-09T02:58:42.171Z,2.30
2019-01-09T03:01:11.990Z,2.30
2019-01-09T03:03:42.140Z,2.20
2019-01-09T03:06:12.158Z,2.20
2019-01-09T03:08:42.131Z,2.20
2019-01-09T03:11:12.096Z,2.20
2019-01-09T03:13:42.285Z,2.10
2019-01-09T03:16:12.110Z,2.10
2019-01-09T03:18:42.329Z,2.00
2019-01-09T03:21:12.116Z,2.00
2019-01-09T03:23:42.053Z,1.90
2019-01-09T03:26:11.752Z,1.90
2019-01-09T03:28:41.347Z,1.90
2019-01-09T03:31:11.128Z,1.90
2019-01-09T03:33:41.288Z,1.80
2019-01-09T03:36:11.141Z,1.80
2019-01-09T03:38:41.346Z,1.80
2019-01-09T03:41:11.181Z,1.80
2019-01-09T03:43:41.378Z,1.70
2019-01-09T03:46:11.244Z,1.70
2019-01-09T03:48:41.180Z,1.70
2019-01-09T03:51:11.097Z,1.60
2019-01-09T03:53:40.753Z,1.60
2019-01-09T03:56:10.442Z,1.60
2019-01-09T03:58:40.484Z,1.50
2019-01-09T04:01:10.264Z,1.50
2019-01-09T04:03:40.194Z,1.40
2019-01-09T04:06:10.141Z,1.40
2019-01-09T04:08:40.157Z,1.50
2019-01-09T04:11:10.097Z,1.50
2019-01-09T04:13:39.747Z,1.60
2019-01-09T04:16:09.506Z,1.50
2019-01-09T04:18:39.305Z,1.60
2019-01-09T04:21:09.274Z,1.60
2019-01-09T04:23:39.230Z,1.60
2019-01-09T04:26:09.338Z,1.60
2019-01-09T04:28:39.446Z,1.60
2019-01-09T04:31:09.304Z,1.60
2019-01-09T04:33:41.973Z,1.60
2019-01-09T04:36:11.660Z,1.60
2019-01-09T04:38:41.426Z,1.50
2019-01-09T04:41:11.205Z,1.40
2019-01-09T04:43:40.852Z,1.40
2019-01-09T04:46:10.542Z,1.40
2019-01-09T04:48:40.388Z,1.40
2019-01-09T04:51:10.408Z,1.30
2019-01-09T04:53:40.420Z,1.30
2019-01-09T04:56:10.243Z,1.30
2019-01-09T04:58:40.252Z,1.30
2019-01-09T05:01:10.279Z,1.30
2019-01-09T05:03:40.324Z,1.40
2019-01-09T05:06:10.298Z,1.40
2019-01-09T05:08:40.514Z,1.40
2019-01-09T05:11:10.351Z,1.40
2019-01-09T05:13:40.157Z,1.40
2019-01-09T05:16:11.200Z,1.40
2019-01-09T05:18:40.853Z,1.40
2019-01-09T05:21:10.552Z,1.40
2019-01-09T05:23:40.445Z,1.40
2019-01-09T05:26:10.271Z,1.40
2019-01-09T05:28:39.928Z,1.40
2019-01-09T05:31:11.262Z,1.40
2019-01-09T05:33:41.030Z,1.50
2019-01-09T05:36:10.738Z,1.50
2019-01-09T05:38:40.411Z,1.40
2019-01-09T05:41:10.290Z,1.50
2019-01-09T05:43:39.983Z,1.40
2019-01-09T05:46:09.644Z,1.40
2019-01-09T05:48:39.471Z,1.40
2019-01-09T05:51:09.340Z,1.40
2019-01-09T05:53:39.352Z,1.50
2019-01-09T05:56:08.941Z,1.50
2019-01-09T05:58:38.612Z,1.50
2019-01-09T06:01:08.307Z,1.50
2019-01-09T06:03:38.356Z,1.50
2019-01-09T06:06:08.004Z,1.60
2019-01-09T06:08:37.785Z,1.60
2019-01-09T06:11:07.499Z,1.60
2019-01-09T06:13:37.513Z,1.60
2019-01-09T06:16:07.294Z,1.70
2019-01-09T06:18:37.536Z,1.70
2019-01-09T06:21:07.361Z,1.70
2019-01-09T06:23:37.600Z,1.70
2019-01-09T06:26:07.367Z,1.80
2019-01-09T06:28:37.063Z,1.80
2019-01-09T06:31:06.723Z,1.70
2019-01-09T06:33:36.594Z,1.70
2019-01-09T06:36:06.435Z,1.70
2019-01-09T06:38:36.612Z,1.70
2019-01-09T06:41:06.389Z,1.70
2019-01-09T06:43:36.445Z,1.70
2019-01-09T06:46:06.358Z,1.70
2019-01-09T06:48:36.036Z,1.80
2019-01-09T06:51:05.809Z,1.80
2019-01-09T06:53:35.666Z,1.80
2019-01-09T06:56:05.533Z,1.90
2019-01-09T06:58:35.506Z,1.90
2019-01-09T07:01:05.478Z,1.90
2019-01-09T07:03:35.502Z,1.90
2019-01-09T07:06:05.424Z,1.90
2019-01-09T07:08:35.541Z,1.90
2019-01-09T07:11:05.514Z,1.90
2019-01-09T07:13:35.530Z,1.90
2019-01-09T07:16:05.410Z,1.80
2019-01-09T07:18:35.178Z,1.80
2019-01-09T07:21:04.838Z,1.70
2019-01-09T07:23:34.639Z,1.70
2019-01-09T07:26:04.414Z,1.70
2019-01-09T07:28:34.104Z,1.70
2019-01-09T07:31:03.769Z,1.70
2019-01-09T07:33:33.638Z,1.70
2019-01-09T07:36:03.510Z,1.70
2019-01-09T07:38:33.784Z,1.70
2019-01-09T07:41:03.525Z,1.70
2019-01-09T07:43:33.695Z,1.70
2019-01-09T07:46:03.537Z,1.70
2019-01-09T07:48:33.646Z,1.80
2019-01-09T07:51:03.485Z,1.80
2019-01-09T07:53:33.525Z,1.80
2019-01-09T07:56:03.215Z,1.80
2019-01-09T07:58:33.009Z,1.80
2019-01-09T08:01:02.603Z,1.80
2019-01-09T08:03:32.728Z,1.90
2019-01-09T08:06:02.637Z,1.80
2019-01-09T08:08:32.666Z,1.60
2019-01-09T08:11:02.568Z,1.40
2019-01-09T08:13:32.606Z,1.20
2019-01-09T08:16:02.705Z,1.20
2019-01-09T08:18:32.564Z,1.10
2019-01-09T08:21:05.388Z,1.10
2019-01-09T08:23:33.988Z,1.10
2019-01-09T08:26:03.816Z,1.10
2019-01-09T08:28:33.700Z,1.20
2019-01-09T08:31:03.770Z,1.20
2019-01-09T08:33:33.638Z,1.30
2019-01-09T08:36:03.556Z,1.40
2019-01-09T08:38:33.578Z,1.40
2019-01-09T08:41:03.262Z,1.50
2019-01-09T08:43:32.972Z,1.50
2019-01-09T08:46:02.666Z,1.50
2019-01-09T08:48:32.694Z,1.60
2019-01-09T08:51:02.700Z,1.60
2019-01-09T08:53:32.743Z,1.60
2019-01-09T08:56:02.614Z,1.60
2019-01-09T08:58:32.770Z,1.60
2019-01-09T09:01:02.650Z,1.60
2019-01-09T09:03:32.308Z,1.60
2019-01-09T09:06:02.097Z,1.60
2019-01-09T09:08:32.010Z,1.60
2019-01-09T09:11:01.717Z,1.70
2019-01-09T09:13:38.673Z,1.60
2019-01-09T09:16:08.616Z,1.80
2019-01-09T09:18:38.761Z,2.10
2019-01-09T09:21:08.764Z,2.10
2019-01-09T09:23:38.821Z,2.00
2019-01-09T09:26:08.712Z,1.90
2019-01-09T09:28:38.738Z,1.80
2019-01-09T09:31:08.734Z,1.70
2019-01-09T09:33:38.761Z,1.80
2019-01-09T09:36:08.683Z,1.80
2019-01-09T09:38:40.266Z,1.80
2019-01-09T09:41:10.018Z,1.70
2019-01-09T09:43:39.881Z,1.70
2019-01-09T09:46:09.885Z,1.60
2019-01-09T09:48:39.896Z,1.60
2019-01-09T09:51:09.817Z,1.60
2019-01-09T09:53:39.837Z,1.50
2019-01-09T09:56:09.457Z,1.50
2019-01-09T09:58:39.047Z,1.40
2019-01-09T10:01:08.831Z,1.40
2019-01-09T10:03:38.771Z,1.30
2019-01-09T10:06:08.769Z,1.40
2019-01-09T10:08:38.961Z,1.50
2019-01-09T10:11:11.634Z,1.50
2019-01-09T10:13:41.310Z,1.50
2019-01-09T10:16:11.046Z,1.50
2019-01-09T10:18:40.969Z,1.40
2019-01-09T10:21:10.946Z,1.40
2019-01-09T10:23:40.948Z,1.50
2019-01-09T10:26:10.771Z,1.50
2019-01-09T10:28:40.804Z,1.50
2019-01-09T10:31:10.460Z,1.50
2019-01-09T10:33:40.142Z,1.50
2019-01-09T10:36:09.840Z,1.50
2019-01-09T10:38:40.134Z,1.60
2019-01-09T10:41:11.429Z,1.60
2019-01-09T10:43:41.453Z,1.60
2019-01-09T10:46:11.265Z,1.50
2019-01-09T10:48:41.080Z,1.60
2019-01-09T10:51:10.892Z,1.50
2019-01-09T10:53:40.854Z,1.50
2019-01-09T10:56:10.515Z,1.50
2019-01-09T10:58:40.189Z,1.50
2019-01-09T11:01:10.025Z,1.40
2019-01-09T11:03:39.961Z,1.40
2019-01-09T11:06:09.821Z,1.50
2019-01-09T11:08:46.892Z,1.50
2019-01-09T11:11:10.849Z,1.60
2019-01-09T11:13:40.969Z,1.50
2019-01-09T11:16:11.010Z,1.50
2019-01-09T11:18:41.124Z,1.50
2019-01-09T11:21:10.970Z,1.50
2019-01-09T11:23:41.215Z,1.50
2019-01-09T11:26:10.850Z,1.50
2019-01-09T11:28:41.110Z,1.60
2019-01-09T11:31:10.846Z,1.50
2019-01-09T11:33:40.538Z,1.50
2019-01-09T11:36:10.200Z,1.60
2019-01-09T11:38:40.595Z,1.60
2019-01-09T11:41:10.304Z,1.50
2019-01-09T11:43:40.192Z,1.50
2019-01-09T11:46:10.022Z,1.60
2019-01-09T11:48:40.066Z,1.60
2019-01-09T11:51:09.917Z,1.60
2019-01-09T11:53:39.938Z,1.60
2019-01-09T11:56:09.522Z,1.60
2019-01-09T11:58:39.212Z,1.60
2019-01-09T12:01:08.904Z,1.60
2019-01-09T12:03:38.626Z,1.60
2019-01-09T12:06:10.135Z,1.60
2019-01-09T12:08:40.210Z,1.60
2019-01-09T12:11:09.935Z,1.60
2019-01-09T12:13:40.165Z,1.50
2019-01-09T12:16:09.939Z,1.50
2019-01-09T12:18:39.650Z,1.50
2019-01-09T12:21:16.420Z,1.60
2019-01-09T12:23:41.091Z,1.60
2019-01-09T12:26:10.961Z,1.50
2019-01-09T12:28:41.194Z,1.50
2019-01-09T12:31:10.969Z,1.50
2019-01-09T12:33:40.594Z,1.50
2019-01-09T12:36:10.243Z,1.50
2019-01-09T12:38:40.137Z,1.60
2019-01-09T12:41:09.990Z,1.50
2019-01-09T12:43:40.226Z,1.60
2019-01-09T12:46:10.097Z,1.60
2019-01-09T12:48:40.030Z,1.60
2019-01-09T12:51:09.978Z,1.60
2019-01-09T12:53:40.236Z,1.60
2019-01-09T12:56:10.018Z,1.60
2019-01-09T12:58:40.212Z,1.60
2019-01-09T13:01:10.051Z,1.60
2019-01-09T13:03:40.255Z,1.50
2019-01-09T13:06:10.042Z,1.50
2019-01-09T13:08:40.209Z,1.50
2019-01-09T13:11:10.065Z,1.40
2019-01-09T13:13:40.247Z,1.40
2019-01-09T13:16:10.053Z,1.40
2019-01-09T13:18:39.655Z,1.40
2019-01-09T13:21:09.341Z,1.40
2019-01-09T13:23:39.173Z,1.40
2019-01-09T13:26:09.071Z,1.40
2019-01-09T13:28:39.261Z,1.40
2019-01-09T13:31:09.072Z,1.30
2019-01-09T13:33:39.259Z,1.30
2019-01-09T13:36:09.106Z,1.30
2019-01-09T13:38:39.112Z,1.30
2019-01-09T13:41:09.029Z,1.30
2019-01-09T13:43:38.685Z,1.30
2019-01-09T13:46:08.470Z,1.30
2019-01-09T13:48:38.206Z,1.30
2019-01-09T13:51:09.526Z,1.40
2019-01-09T13:53:39.379Z,1.50
2019-01-09T13:56:09.134Z,1.60
2019-01-09T13:58:39.088Z,1.60
2019-01-09T14:01:09.080Z,1.50
2019-01-09T14:03:38.733Z,1.50
2019-01-09T14:06:08.468Z,1.40
2019-01-09T14:08:38.230Z,1.40
2019-01-09T14:11:08.121Z,1.30
2019-01-09T14:13:38.292Z,1.30
2019-01-09T14:16:08.146Z,1.20
2019-01-09T14:18:38.187Z,1.20
2019-01-09T14:21:08.158Z,1.20
2019-01-09T14:23:38.361Z,1.20
2019-01-09T14:26:08.153Z,1.80
2019-01-09T14:28:38.364Z,1.10
2019-01-09T14:31:08.173Z,1.10
2019-01-09T14:33:37.829Z,1.10
2019-01-09T14:36:07.591Z,1.10
2019-01-09T14:38:37.322Z,1.10
2019-01-09T14:41:07.212Z,1.10
2019-01-09T14:43:37.403Z,1.10
2019-01-09T14:46:07.197Z,1.10
2019-01-09T14:48:37.387Z,1.00
2019-01-09T14:51:07.217Z,1.10
2019-01-09T14:53:36.893Z,1.10
2019-01-09T14:56:06.583Z,1.10
2019-01-09T14:58:36.357Z,1.10
2019-01-09T15:01:06.237Z,1.10
2019-01-09T15:03:36.439Z,1.00
2019-01-09T15:06:06.296Z,1.00
2019-01-09T15:08:36.297Z,0.90
2019-01-09T15:11:06.253Z,0.90
2019-01-09T15:13:36.437Z,0.90
2019-01-09T15:16:06.256Z,0.80
2019-01-09T15:18:36.372Z,0.80
2019-01-09T15:21:06.290Z,0.70
2019-01-09T15:23:36.360Z,0.70
2019-01-09T15:26:06.270Z,0.60
2019-01-09T15:28:36.338Z,0.60
2019-01-09T15:31:06.304Z,0.60
2019-01-09T15:33:36.360Z,0.50
2019-01-09T15:36:06.274Z,0.50
2019-01-09T15:38:35.934Z,0.50
2019-01-09T15:41:05.626Z,0.50
2019-01-09T15:43:35.486Z,0.40
2019-01-09T15:46:05.340Z,0.40
2019-01-09T15:48:35.271Z,0.40
2019-01-09T15:51:05.298Z,0.40
2019-01-09T15:53:35.492Z,0.40
2019-01-09T15:56:05.293Z,0.50
2019-01-09T15:58:35.444Z,0.50
2019-01-09T16:01:05.315Z,0.50
2019-01-09T16:03:35.308Z,0.50
2019-01-09T16:06:05.281Z,0.60
2019-01-09T16:08:35.445Z,0.70
2019-01-09T16:11:05.939Z,0.60
2019-01-09T16:13:35.642Z,0.60
2019-01-09T16:16:05.435Z,0.60
2019-01-09T16:18:35.437Z,0.50
2019-01-09T16:21:05.308Z,0.60
2019-01-09T16:23:34.998Z,0.60
2019-01-09T16:26:04.750Z,0.60
2019-01-09T16:28:34.479Z,0.50
2019-01-09T16:31:10.185Z,0.50
2019-01-09T16:33:39.868Z,0.50
2019-01-09T16:36:09.520Z,0.50
2019-01-09T16:38:39.576Z,0.50
2019-01-09T16:41:09.341Z,0.40
2019-01-09T16:43:39.576Z,0.40
2019-01-09T16:46:09.354Z,0.40
2019-01-09T16:48:39.720Z,0.40
2019-01-09T16:51:09.626Z,0.40
2019-01-09T16:53:39.542Z,0.30
2019-01-09T16:56:09.385Z,0.40
2019-01-09T16:58:39.425Z,0.40
2019-01-09T17:01:09.387Z,0.40
2019-01-09T17:03:39.425Z,0.40
2019-01-09T17:06:09.081Z,0.40
2019-01-09T17:08:38.773Z,0.50
2019-01-09T17:11:08.607Z,0.50
2019-01-09T17:13:38.720Z,0.50
2019-01-09T17:16:08.445Z,0.50
2019-01-09T17:18:38.483Z,0.50
2019-01-09T17:21:08.418Z,0.50
2019-01-09T17:23:38.642Z,0.50
2019-01-09T17:26:08.430Z,0.50
2019-01-09T17:28:38.526Z,0.50
2019-01-09T17:31:08.418Z,0.50
2019-01-09T17:33:38.582Z,0.50
2019-01-09T17:36:08.514Z,0.50
2019-01-09T17:38:38.474Z,0.50
2019-01-09T17:41:08.460Z,0.50
2019-01-09T17:43:38.514Z,0.50
2019-01-09T17:46:08.454Z,0.40
2019-01-09T17:48:38.160Z,0.40
2019-01-09T17:51:07.906Z,0.40
2019-01-09T17:53:37.650Z,0.40
2019-01-09T17:56:07.476Z,0.40
2019-01-09T17:58:37.729Z,0.40
2019-01-09T18:01:07.506Z,0.40
2019-01-09T18:03:37.541Z,0.40
2019-01-09T18:06:07.193Z,0.40
2019-01-09T18:08:37.677Z,0.40
2019-01-09T18:11:07.571Z,0.40
2019-01-09T18:13:37.603Z,0.30
2019-01-09T18:16:07.763Z,0.30
2019-01-09T18:18:37.783Z,0.30
2019-01-09T18:21:07.669Z,0.30
2019-01-09T18:23:37.726Z,0.30
2019-01-09T18:26:07.539Z,0.40
2019-01-09T18:28:37.685Z,0.40
2019-01-09T18:31:10.939Z,0.50
2019-01-09T18:33:43.820Z,0.50
2019-01-09T18:36:16.694Z,0.50
2019-01-09T18:38:49.854Z,0.50
2019-01-09T18:41:43.809Z,0.60
2019-01-09T18:44:22.544Z,0.50
2019-01-09T18:47:24.345Z,0.60
2019-01-09T18:50:09.102Z,0.80
2019-01-09T18:52:41.987Z,1.00
2019-01-09T18:55:11.887Z,0.90
2019-01-09T18:57:41.818Z,0.80
2019-01-09T19:00:14.994Z,0.70
2019-01-09T19:02:44.757Z,1.60
2019-01-09T19:05:14.749Z,0.70
2019-01-09T19:07:44.834Z,0.60
2019-01-09T19:10:20.163Z,0.70
2019-01-09T19:12:50.662Z,0.70
2019-01-09T19:15:20.666Z,0.70
2019-01-09T19:17:50.658Z,0.60
2019-01-09T19:20:20.714Z,0.60
2019-01-09T19:22:50.710Z,0.60
2019-01-09T19:25:20.678Z,0.50
2019-01-09T19:27:50.575Z,0.50
2019-01-09T19:30:23.403Z,0.50
2019-01-09T19:32:53.273Z,0.60
2019-01-09T19:35:23.082Z,0.60
2019-01-09T19:37:52.865Z,0.50
2019-01-09T19:40:22.742Z,0.50
2019-01-09T19:42:52.660Z,0.40
2019-01-09T19:45:22.353Z,0.40
2019-01-09T19:47:52.077Z,0.40
2019-01-09T19:50:23.335Z,0.40
2019-01-09T19:52:54.591Z,0.40
2019-01-09T19:55:24.306Z,0.40
2019-01-09T19:57:54.109Z,0.40
2019-01-09T20:00:24.734Z,0.50
2019-01-09T20:02:54.670Z,0.50
2019-01-09T20:05:24.335Z,0.50
2019-01-09T20:07:54.212Z,0.50
2019-01-09T20:10:25.504Z,0.40
2019-01-09T20:12:55.230Z,0.40
2019-01-09T20:15:25.064Z,0.50
2019-01-09T20:17:54.889Z,0.40
2019-01-09T20:20:24.776Z,0.50
2019-01-09T20:22:54.810Z,0.40
2019-01-09T20:25:24.734Z,0.40
2019-01-09T20:27:54.422Z,0.40
2019-01-09T20:30:26.211Z,0.40
2019-01-09T20:32:56.013Z,0.30
2019-01-09T20:35:25.768Z,0.30
2019-01-09T20:37:55.469Z,0.40
2019-01-09T20:40:25.377Z,0.30
2019-01-09T20:42:55.147Z,0.20
2019-01-09T20:45:24.807Z,0.20
2019-01-09T20:47:54.760Z,0.10
2019-01-09T20:50:26.043Z,0.10
2019-01-09T20:52:55.950Z,0.10
2019-01-09T20:55:25.833Z,0.10
2019-01-09T20:57:55.868Z,0.10
2019-01-09T21:00:27.211Z,0.10
2019-01-09T21:02:58.922Z,0.10
2019-01-09T21:05:31.576Z,0.10
2019-01-09T21:08:01.254Z,0.10
2019-01-09T21:10:31.159Z,0.10
2019-01-09T21:13:00.881Z,0.10
2019-01-09T21:15:31.163Z,0.10
2019-01-09T21:18:00.875Z,0.20
2019-01-09T21:20:31.116Z,0.20
2019-01-09T21:23:00.916Z,0.20
2019-01-09T21:25:31.069Z,0.20
2019-01-09T21:28:00.891Z,0.20
2019-01-09T21:30:31.013Z,0.10
2019-01-09T21:33:01.054Z,0.10
2019-01-09T21:35:31.166Z,0.10
2019-01-09T21:38:00.870Z,0.10
2019-01-09T21:40:31.185Z,0.10
2019-01-09T21:43:00.950Z,0.10
2019-01-09T21:45:31.041Z,0.10
2019-01-09T21:48:01.004Z,0.10
2019-01-09T21:50:31.578Z,0.10
2019-01-09T21:53:02.133Z,0.10
2019-01-09T21:55:32.034Z,0.10
2019-01-09T21:58:01.943Z,0.10
2019-01-09T22:00:31.915Z,0.00
2019-01-09T22:03:01.943Z,0.00
2019-01-09T22:05:31.878Z,0.10
2019-01-09T22:08:01.633Z,0.10
2019-01-09T22:10:33.283Z,0.10
2019-01-09T22:13:03.084Z,0.10
2019-01-09T22:15:33.035Z,0.10
2019-01-09T22:18:02.938Z,0.10
2019-01-09T22:20:32.975Z,0.10
2019-01-09T22:23:02.913Z,0.00
2019-01-09T22:25:32.539Z,0.00
2019-01-09T22:28:02.217Z,0.00
2019-01-09T22:30:32.143Z,0.10
2019-01-09T22:33:01.941Z,0.00
2019-01-09T22:35:31.629Z,0.00
2019-01-09T22:38:01.281Z,0.00
2019-01-09T22:40:31.390Z,0.00
2019-01-09T22:43:01.050Z,0.00
2019-01-09T22:45:31.360Z,0.10
2019-01-09T22:48:01.113Z,0.10
2019-01-09T22:50:31.274Z,0.10
2019-01-09T22:53:01.032Z,0.00
2019-01-09T22:55:31.412Z,0.10
2019-01-09T22:58:01.117Z,0.10
2019-01-09T23:00:40.707Z,0.10
2019-01-09T23:03:11.970Z,0.10
2019-01-09T23:05:41.690Z,0.10
2019-01-09T23:08:11.782Z,0.10
2019-01-09T23:10:41.658Z,0.00
2019-01-09T23:13:11.323Z,0.00
2019-01-09T23:15:41.222Z,0.00
2019-01-09T23:18:11.304Z,-0.10
2019-01-09T23:20:41.353Z,-0.10
2019-01-09T23:23:11.180Z,0.00
2019-01-09T23:25:41.204Z,0.00
2019-01-09T23:28:11.052Z,-0.10
2019-01-09T23:30:41.326Z,0.00
2019-01-09T23:33:11.095Z,0.00
2019-01-09T23:35:41.122Z,0.00
2019-01-09T23:38:11.114Z,0.00
2019-01-09T23:40:41.394Z,0.00
2019-01-09T23:43:11.227Z,0.00
2019-01-09T23:45:41.359Z,0.00
2019-01-09T23:48:11.147Z,0.00
2019-01-09T23:50:41.317Z,0.00
2019-01-09T23:53:11.164Z,0.00
2019-01-09T23:55:41.257Z,0.00
2019-01-09T23:58:11.193Z,0.00
